createdAt,value
2018-06-03T00:00:07.687Z,9.40
2018-06-03T00:02:35.975Z,11.30
2018-06-03T00:05:03.499Z,8.73
2018-06-03T00:07:31.027Z,10.20
2018-06-03T00:09:58.527Z,11.97
2018-06-03T00:12:26.815Z,11.97
2018-06-03T00:14:54.320Z,13.43
2018-06-03T00:17:23.843Z,10.00
2018-06-03T00:19:51.366Z,10.33
2018-06-03T00:22:21.861Z,12.00
2018-06-03T00:24:49.394Z,10.07
2018-06-03T00:27:16.902Z,10.23
2018-06-03T00:29:44.447Z,10.43
2018-06-03T00:32:11.944Z,8.87
2018-06-03T00:34:39.466Z,9.93
2018-06-03T00:37:06.989Z,9.60
2018-06-03T00:39:35.274Z,8.83
2018-06-03T00:42:02.815Z,9.30
2018-06-03T00:44:30.380Z,10.80
2018-06-03T00:46:58.647Z,10.93
2018-06-03T00:49:26.981Z,8.80
2018-06-03T00:51:54.494Z,9.87
2018-06-03T00:54:23.731Z,14.70
2018-06-03T00:57:03.139Z,11.03
2018-06-03T00:59:30.631Z,9.83
2018-06-03T01:01:58.147Z,9.40
2018-06-03T01:04:26.421Z,11.33
2018-06-03T01:06:55.759Z,9.70
2018-06-03T01:09:23.247Z,9.80
2018-06-03T01:11:51.695Z,11.17
2018-06-03T01:14:19.214Z,9.23
2018-06-03T01:16:47.480Z,9.63
2018-06-03T01:19:15.774Z,11.47
2018-06-03T01:21:44.255Z,10.40
2018-06-03T01:24:11.855Z,10.37
2018-06-03T01:26:40.001Z,9.60
2018-06-03T01:29:07.522Z,9.73
2018-06-03T01:31:36.791Z,10.63
2018-06-03T01:34:04.351Z,9.93
2018-06-03T01:36:31.895Z,12.70
2018-06-03T01:38:59.411Z,9.73
2018-06-03T01:41:28.932Z,10.47
2018-06-03T01:43:56.433Z,10.60
2018-06-03T01:46:26.739Z,9.40
2018-06-03T01:48:54.255Z,9.70
2018-06-03T01:51:21.771Z,9.33
2018-06-03T01:53:50.044Z,10.30
2018-06-03T01:56:17.543Z,9.00
2018-06-03T01:58:47.017Z,9.77
2018-06-03T02:01:15.289Z,10.43
2018-06-03T02:03:44.325Z,9.90
2018-06-03T02:06:11.823Z,10.07
2018-06-03T02:08:42.103Z,11.70
2018-06-03T02:11:10.560Z,12.93
2018-06-03T02:13:40.087Z,11.80
2018-06-03T02:16:07.608Z,10.50
2018-06-03T02:18:35.908Z,9.83
2018-06-03T02:21:03.435Z,10.63
2018-06-03T02:23:30.963Z,11.03
2018-06-03T02:25:58.588Z,12.00
2018-06-03T02:28:26.093Z,13.50
2018-06-03T02:30:53.620Z,12.73
2018-06-03T02:33:21.136Z,9.73
2018-06-03T02:35:49.429Z,14.07
2018-06-03T02:38:16.951Z,13.00
2018-06-03T02:40:44.467Z,10.73
2018-06-03T02:43:11.985Z,10.73
2018-06-03T02:45:40.399Z,12.93
2018-06-03T02:48:07.925Z,11.27
2018-06-03T02:50:36.215Z,11.13
2018-06-03T02:53:05.705Z,11.87
2018-06-03T02:55:33.218Z,14.40
2018-06-03T02:58:00.758Z,11.47
2018-06-03T03:00:28.272Z,15.13
2018-06-03T03:02:56.539Z,11.83
2018-06-03T03:05:24.836Z,11.47
2018-06-03T03:07:52.347Z,11.90
2018-06-03T03:10:21.416Z,11.43
2018-06-03T03:12:49.582Z,10.83
2018-06-03T03:15:18.149Z,11.37
2018-06-03T03:17:45.655Z,12.17
2018-06-03T03:20:15.115Z,15.23
2018-06-03T03:22:42.615Z,11.67
2018-06-03T03:25:10.188Z,11.33
2018-06-03T03:27:37.687Z,11.30
2018-06-03T03:30:05.192Z,10.87
2018-06-03T03:32:35.219Z,11.20
2018-06-03T03:35:02.761Z,12.10
2018-06-03T03:37:33.031Z,10.73
2018-06-03T03:40:00.544Z,10.13
2018-06-03T03:42:28.095Z,10.20
2018-06-03T03:44:55.597Z,11.80
2018-06-03T03:47:23.125Z,10.37
2018-06-03T03:49:50.632Z,10.77
2018-06-03T03:52:18.127Z,10.10
2018-06-03T03:54:46.431Z,10.97
2018-06-03T03:57:14.691Z,9.97
2018-06-03T03:59:42.215Z,9.43
2018-06-03T04:02:09.711Z,11.07
2018-06-03T04:04:37.992Z,9.63
2018-06-03T04:07:06.257Z,9.30
2018-06-03T04:09:34.547Z,10.53
2018-06-03T04:12:02.806Z,9.67
2018-06-03T04:14:30.318Z,8.93
2018-06-03T04:16:57.827Z,11.37
2018-06-03T04:19:26.103Z,8.50
2018-06-03T04:21:54.420Z,10.47
2018-06-03T04:24:21.955Z,10.30
2018-06-03T04:26:49.468Z,8.90
2018-06-03T04:29:17.726Z,9.70
2018-06-03T04:31:45.248Z,9.07
2018-06-03T04:34:12.754Z,12.20
2018-06-03T04:36:41.795Z,9.37
2018-06-03T04:39:09.290Z,10.30
2018-06-03T04:41:36.796Z,9.90
2018-06-03T04:44:05.083Z,10.20
2018-06-03T04:46:32.615Z,10.60
2018-06-03T04:49:00.905Z,9.47
2018-06-03T04:51:29.166Z,9.40
2018-06-03T04:53:58.455Z,8.43
2018-06-03T04:56:25.969Z,9.67
2018-06-03T04:58:53.501Z,11.20
2018-06-03T05:01:21.984Z,10.03
2018-06-03T05:03:49.512Z,10.83
2018-06-03T05:06:17.794Z,11.27
2018-06-03T05:08:46.155Z,11.37
2018-06-03T05:11:13.685Z,10.10
2018-06-03T05:13:41.182Z,10.63
2018-06-03T05:16:09.466Z,10.23
2018-06-03T05:18:37.738Z,10.87
2018-06-03T05:21:06.063Z,10.73
2018-06-03T05:23:33.567Z,10.30
2018-06-03T05:26:01.869Z,13.70
2018-06-03T05:28:30.328Z,10.17
2018-06-03T05:30:58.612Z,9.37
2018-06-03T05:33:26.895Z,10.70
2018-06-03T05:35:54.397Z,11.40
2018-06-03T05:38:21.924Z,10.30
2018-06-03T05:40:49.435Z,9.83
2018-06-03T05:43:16.967Z,9.97
2018-06-03T05:45:44.471Z,11.13
2018-06-03T05:48:12.732Z,11.73
2018-06-03T05:50:41.022Z,11.50
2018-06-03T05:53:08.535Z,9.93
2018-06-03T05:55:36.083Z,10.37
2018-06-03T05:58:03.735Z,10.20
2018-06-03T06:00:31.376Z,13.23
2018-06-03T06:02:58.881Z,11.27
2018-06-03T06:05:27.154Z,9.87
2018-06-03T06:07:58.138Z,10.70
2018-06-03T06:10:25.641Z,10.53
2018-06-03T06:12:53.169Z,12.00
2018-06-03T06:15:20.666Z,12.37
2018-06-03T06:17:48.194Z,10.73
2018-06-03T06:20:15.694Z,10.80
2018-06-03T06:22:43.967Z,17.83
2018-06-03T06:25:11.513Z,11.40
2018-06-03T06:27:39.763Z,10.43
2018-06-03T06:30:07.295Z,13.47
2018-06-03T06:32:34.802Z,16.23
2018-06-03T06:35:02.327Z,11.87
2018-06-03T06:37:29.832Z,11.80
2018-06-03T06:39:58.134Z,11.70
2018-06-03T06:42:25.660Z,11.60
2018-06-03T06:44:53.932Z,15.13
2018-06-03T06:47:22.249Z,16.90
2018-06-03T06:49:50.723Z,12.77
2018-06-03T06:52:18.268Z,15.13
2018-06-03T06:54:46.527Z,12.50
2018-06-03T06:57:14.878Z,11.43
2018-06-03T06:59:42.379Z,14.30
2018-06-03T07:02:10.679Z,12.90
2018-06-03T07:04:38.212Z,11.40
2018-06-03T07:07:06.474Z,12.00
2018-06-03T07:09:34.774Z,11.13
2018-06-03T07:12:02.283Z,11.67
2018-06-03T07:14:29.853Z,11.10
2018-06-03T07:16:57.336Z,12.60
2018-06-03T07:19:25.631Z,12.83
2018-06-03T07:21:54.087Z,13.10
2018-06-03T07:24:22.379Z,12.53
2018-06-03T07:26:49.899Z,11.23
2018-06-03T07:29:18.929Z,12.03
2018-06-03T07:31:47.421Z,13.20
2018-06-03T07:34:14.943Z,13.30
2018-06-03T07:36:43.211Z,10.93
2018-06-03T07:39:11.730Z,10.17
2018-06-03T07:41:39.259Z,12.00
2018-06-03T07:44:07.536Z,12.53
2018-06-03T07:46:35.827Z,11.33
2018-06-03T07:49:03.341Z,10.90
2018-06-03T07:51:32.815Z,10.23
2018-06-03T07:54:00.312Z,11.23
2018-06-03T07:56:27.851Z,9.43
2018-06-03T07:58:55.373Z,10.57
2018-06-03T08:01:22.867Z,10.03
2018-06-03T08:03:50.388Z,11.23
2018-06-03T08:06:17.887Z,9.90
2018-06-03T08:08:47.364Z,9.87
2018-06-03T08:11:14.901Z,9.50
2018-06-03T08:13:42.474Z,9.57
2018-06-03T08:16:09.982Z,9.47
2018-06-03T08:18:38.280Z,8.47
2018-06-03T08:21:05.775Z,8.97
2018-06-03T08:23:33.279Z,8.33
2018-06-03T08:26:01.555Z,8.37
2018-06-03T08:28:29.915Z,13.33
2018-06-03T08:30:58.395Z,10.23
2018-06-03T08:33:25.916Z,8.90
2018-06-03T08:35:53.439Z,9.77
2018-06-03T08:38:20.947Z,8.90
2018-06-03T08:40:48.472Z,10.00
2018-06-03T08:43:15.984Z,7.50
2018-06-03T08:45:44.271Z,8.43
2018-06-03T08:48:12.534Z,6.87
2018-06-03T08:50:40.816Z,6.70
2018-06-03T08:53:09.091Z,7.37
2018-06-03T08:55:37.378Z,8.80
2018-06-03T08:58:04.902Z,7.60
2018-06-03T09:00:33.210Z,6.30
2018-06-03T09:03:00.752Z,11.73
2018-06-03T09:05:29.017Z,7.13
2018-06-03T09:07:58.526Z,8.17
2018-06-03T09:10:26.810Z,8.87
2018-06-03T09:12:57.066Z,7.50
2018-06-03T09:15:24.582Z,7.50
2018-06-03T09:17:52.874Z,6.93
2018-06-03T09:20:20.411Z,8.53
2018-06-03T09:22:48.691Z,7.60
2018-06-03T09:25:16.991Z,7.27
2018-06-03T09:27:44.539Z,6.87
2018-06-03T09:30:12.083Z,7.70
2018-06-03T09:32:40.366Z,7.30
2018-06-03T09:35:08.647Z,7.53
2018-06-03T09:37:36.907Z,7.10
2018-06-03T09:40:05.205Z,10.33
2018-06-03T09:42:32.717Z,6.60
2018-06-03T09:45:00.246Z,8.50
2018-06-03T09:47:27.735Z,7.07
2018-06-03T09:49:55.999Z,7.27
2018-06-03T09:52:23.563Z,6.57
2018-06-03T09:54:51.835Z,6.83
2018-06-03T09:57:19.367Z,7.40
2018-06-03T09:59:46.877Z,6.60
2018-06-03T10:02:15.163Z,7.00
2018-06-03T10:04:44.361Z,7.03
2018-06-03T10:07:12.645Z,6.63
2018-06-03T10:09:40.200Z,7.03
2018-06-03T10:12:07.719Z,6.47
2018-06-03T10:14:35.243Z,6.90
2018-06-03T10:17:03.683Z,6.93
2018-06-03T10:19:31.273Z,6.43
2018-06-03T10:21:58.767Z,5.90
2018-06-03T10:24:27.995Z,5.70
2018-06-03T10:26:56.342Z,6.80
2018-06-03T10:29:23.838Z,6.37
2018-06-03T10:31:51.388Z,7.03
2018-06-03T10:34:19.652Z,7.97
2018-06-03T10:36:47.972Z,6.20
2018-06-03T10:39:15.465Z,7.00
2018-06-03T10:41:45.753Z,6.53
2018-06-03T10:44:13.273Z,6.77
2018-06-03T10:46:43.519Z,7.03
2018-06-03T10:49:11.020Z,6.07
2018-06-03T10:51:38.520Z,7.87
2018-06-03T10:54:06.238Z,6.40
2018-06-03T10:56:33.740Z,7.60
2018-06-03T10:59:01.257Z,5.50
2018-06-03T11:01:28.756Z,5.90
2018-06-03T11:03:56.264Z,5.83
2018-06-03T11:06:23.776Z,5.93
2018-06-03T11:08:51.291Z,6.27
2018-06-03T11:11:18.811Z,6.40
2018-06-03T11:13:46.334Z,6.50
2018-06-03T11:16:14.618Z,5.33
2018-06-03T11:18:42.110Z,6.20
2018-06-03T11:21:10.495Z,5.73
2018-06-03T11:23:38.024Z,6.70
2018-06-03T11:26:05.531Z,5.67
2018-06-03T11:28:33.059Z,6.20
2018-06-03T11:31:00.598Z,5.90
2018-06-03T11:33:28.126Z,5.27
2018-06-03T11:35:55.626Z,6.30
2018-06-03T11:38:23.169Z,5.90
2018-06-03T11:40:52.693Z,5.40
2018-06-03T11:43:20.195Z,5.03
2018-06-03T11:45:48.475Z,5.33
2018-06-03T11:48:16.764Z,5.77
2018-06-03T11:50:45.028Z,5.57
2018-06-03T11:53:13.320Z,4.57
2018-06-03T11:55:40.843Z,5.40
2018-06-03T11:58:20.969Z,6.13
2018-06-03T12:00:48.492Z,5.43
2018-06-03T12:03:16.975Z,5.63
2018-06-03T12:05:44.593Z,5.20
2018-06-03T12:08:12.958Z,5.50
2018-06-03T12:10:40.451Z,5.10
2018-06-03T12:13:08.075Z,7.30
2018-06-03T12:15:36.714Z,5.70
2018-06-03T12:18:04.680Z,4.73
2018-06-03T12:20:32.548Z,5.40
2018-06-03T12:23:00.514Z,5.50
2018-06-03T12:25:28.044Z,5.10
2018-06-03T12:27:56.328Z,5.50
2018-06-03T12:30:23.827Z,5.60
2018-06-03T12:32:51.338Z,5.53
2018-06-03T12:35:19.843Z,4.40
2018-06-03T12:37:47.627Z,4.80
2018-06-03T12:40:15.572Z,5.97
2018-06-03T12:42:43.345Z,4.70
2018-06-03T12:45:11.304Z,6.63
2018-06-03T12:47:39.279Z,6.03
2018-06-03T12:50:09.696Z,4.90
2018-06-03T12:52:37.668Z,4.17
2018-06-03T12:55:05.629Z,5.30
2018-06-03T12:57:33.501Z,5.20
2018-06-03T13:00:02.188Z,6.53
2018-06-03T13:02:29.979Z,5.00
2018-06-03T13:04:58.835Z,8.60
2018-06-03T13:07:27.667Z,5.13
2018-06-03T13:09:55.330Z,5.10
2018-06-03T13:12:23.910Z,4.77
2018-06-03T13:14:51.727Z,6.70
2018-06-03T13:17:21.236Z,7.80
2018-06-03T13:19:49.760Z,5.70
2018-06-03T13:22:17.314Z,6.00
2018-06-03T13:24:44.829Z,4.73
2018-06-03T13:27:12.322Z,4.60
2018-06-03T13:29:39.854Z,7.40
2018-06-03T13:32:07.361Z,11.50
2018-06-03T13:34:35.654Z,8.13
2018-06-03T13:37:03.151Z,4.53
2018-06-03T13:39:32.650Z,6.30
2018-06-03T13:42:00.193Z,5.33
2018-06-03T13:44:27.736Z,7.60
2018-06-03T13:46:55.260Z,149.40
2018-06-03T13:49:22.790Z,151.63
2018-06-03T13:51:50.303Z,181.93
2018-06-03T13:54:17.803Z,299.50
2018-06-03T13:56:45.331Z,281.27
2018-06-03T13:59:12.834Z,261.90
2018-06-03T14:01:40.376Z,213.10
2018-06-03T14:04:07.905Z,198.20
2018-06-03T14:06:35.556Z,189.00
2018-06-03T14:09:03.091Z,180.60
2018-06-03T14:12:03.537Z,206.23
2018-06-03T14:14:32.060Z,163.50
2018-06-03T14:17:00.632Z,164.33
2018-06-03T14:19:29.182Z,175.20
2018-06-03T14:21:57.718Z,131.07
2018-06-03T14:24:26.287Z,131.17
2018-06-03T14:26:54.859Z,134.47
2018-06-03T14:29:23.459Z,129.87
2018-06-03T14:31:52.033Z,93.17
2018-06-03T14:34:20.603Z,118.33
2018-06-03T14:36:49.189Z,94.43
2018-06-03T14:39:17.718Z,92.90
2018-06-03T14:41:46.257Z,95.97
2018-06-03T14:44:15.834Z,108.67
2018-06-03T14:46:44.424Z,73.43
2018-06-03T14:49:13.015Z,81.83
2018-06-03T14:51:41.572Z,79.87
2018-06-03T14:54:10.389Z,89.30
2018-06-03T14:56:38.951Z,63.50
2018-06-03T14:59:07.423Z,62.93
2018-06-03T15:01:35.950Z,90.20
2018-06-03T15:04:04.588Z,69.13
2018-06-03T15:06:33.111Z,56.27
2018-06-03T15:09:01.681Z,53.00
2018-06-03T15:11:30.251Z,52.90
2018-06-03T15:13:58.828Z,56.67
2018-06-03T15:16:27.362Z,60.23
2018-06-03T15:18:55.970Z,50.93
2018-06-03T15:21:24.659Z,51.50
2018-06-03T15:23:53.299Z,57.47
2018-06-03T15:26:22.033Z,59.50
2018-06-03T15:28:50.583Z,45.10
2018-06-03T15:31:18.850Z,43.17
2018-06-03T15:33:47.407Z,39.23
2018-06-03T15:36:15.979Z,47.33
2018-06-03T15:38:44.523Z,54.77
2018-06-03T15:41:15.946Z,56.07
2018-06-03T15:43:44.513Z,46.10
2018-06-03T15:46:13.046Z,49.53
2018-06-03T15:48:42.664Z,57.00
2018-06-03T15:51:11.289Z,37.30
2018-06-03T15:53:39.850Z,39.97
2018-06-03T15:56:08.471Z,43.63
2018-06-03T15:58:37.020Z,38.07
2018-06-03T16:01:06.611Z,38.27
2018-06-03T16:03:35.195Z,39.27
2018-06-03T16:06:03.787Z,31.50
2018-06-03T16:08:32.347Z,33.97
2018-06-03T16:11:00.936Z,32.10
2018-06-03T16:13:29.530Z,38.83
2018-06-03T16:15:58.140Z,29.73
2018-06-03T16:18:27.708Z,35.57
2018-06-03T16:20:56.235Z,30.93
2018-06-03T16:23:24.802Z,29.53
2018-06-03T16:25:53.328Z,27.80
2018-06-03T16:28:21.862Z,34.37
2018-06-03T16:30:50.439Z,31.20
2018-06-03T16:33:19.152Z,28.77
2018-06-03T16:35:47.687Z,26.80
2018-06-03T16:38:16.213Z,27.97
2018-06-03T16:40:44.783Z,33.53
2018-06-03T16:43:13.381Z,25.03
2018-06-03T16:45:41.939Z,25.60
2018-06-03T16:48:11.571Z,25.93
2018-06-03T16:50:40.236Z,23.70
2018-06-03T16:53:08.758Z,21.37
2018-06-03T16:55:37.306Z,23.77
2018-06-03T16:58:05.920Z,23.53
2018-06-03T17:00:34.479Z,20.30
2018-06-03T17:03:03.038Z,32.73
2018-06-03T17:05:31.593Z,19.30
2018-06-03T17:08:00.270Z,22.17
2018-06-03T17:10:28.892Z,18.30
2018-06-03T17:12:57.487Z,15.67
2018-06-03T17:15:26.068Z,16.37
2018-06-03T17:17:54.643Z,21.47
2018-06-03T17:20:23.294Z,22.27
2018-06-03T17:22:51.800Z,17.80
2018-06-03T17:25:20.388Z,17.33
2018-06-03T17:27:48.903Z,15.37
2018-06-03T17:30:17.490Z,18.90
2018-06-03T17:32:47.038Z,21.70
2018-06-03T17:35:18.551Z,24.60
2018-06-03T17:37:47.059Z,20.10
2018-06-03T17:40:15.629Z,13.43
2018-06-03T17:42:44.156Z,17.63
2018-06-03T17:45:12.769Z,23.90
2018-06-03T17:47:41.316Z,16.37
2018-06-03T17:50:09.840Z,15.03
2018-06-03T17:52:38.497Z,14.53
2018-06-03T17:55:06.684Z,18.13
2018-06-03T17:57:35.352Z,16.53
2018-06-03T18:00:04.008Z,15.10
2018-06-03T18:02:32.647Z,12.43
2018-06-03T18:05:01.180Z,11.70
2018-06-03T18:07:29.735Z,16.97
2018-06-03T18:09:58.330Z,16.07
2018-06-03T18:12:26.849Z,15.00
2018-06-03T18:14:55.396Z,15.13
2018-06-03T18:17:23.948Z,12.23
2018-06-03T18:19:52.532Z,12.80
2018-06-03T18:22:21.095Z,16.37
2018-06-03T18:24:49.669Z,14.47
2018-06-03T18:27:17.838Z,13.23
2018-06-03T18:29:46.425Z,17.83
2018-06-03T18:32:15.149Z,13.50
2018-06-03T18:34:43.699Z,12.60
2018-06-03T18:37:12.257Z,12.93
2018-06-03T18:39:40.842Z,13.80
2018-06-03T18:42:09.475Z,13.67
2018-06-03T18:44:38.033Z,14.50
2018-06-03T18:47:06.666Z,14.50
2018-06-03T18:49:35.238Z,11.20
2018-06-03T18:52:03.819Z,13.70
2018-06-03T18:54:32.406Z,13.67
2018-06-03T18:57:00.983Z,11.60
2018-06-03T18:59:29.635Z,16.70
2018-06-03T19:01:58.164Z,13.17
2018-06-03T19:04:26.686Z,12.53
2018-06-03T19:06:55.256Z,14.33
2018-06-03T19:09:23.846Z,16.57
2018-06-03T19:11:52.376Z,13.27
2018-06-03T19:14:20.935Z,12.73
2018-06-03T19:16:49.596Z,11.57
2018-06-03T19:19:18.286Z,13.20
2018-06-03T19:21:47.863Z,11.57
2018-06-03T19:24:16.146Z,12.87
2018-06-03T19:26:44.743Z,12.97
2018-06-03T19:29:13.280Z,8.30
2018-06-03T19:31:41.853Z,7.77
2018-06-03T19:34:10.398Z,9.90
2018-06-03T19:36:39.051Z,8.20
2018-06-03T19:39:07.952Z,8.90
2018-06-03T19:41:37.040Z,10.30
2018-06-03T19:44:05.655Z,12.30
2018-06-03T19:46:34.237Z,7.50
2018-06-03T19:49:02.863Z,8.67
2018-06-03T19:51:31.445Z,8.70
2018-06-03T19:54:00.109Z,9.60
2018-06-03T19:56:28.698Z,11.40
2018-06-03T19:58:57.287Z,13.70
2018-06-03T20:01:25.831Z,9.60
2018-06-03T20:03:54.421Z,11.83
2018-06-03T20:06:22.973Z,11.03
2018-06-03T20:08:51.508Z,11.50
2018-06-03T20:11:20.051Z,10.80
2018-06-03T20:13:48.724Z,11.40
2018-06-03T20:16:17.271Z,8.60
2018-06-03T20:18:45.838Z,9.20
2018-06-03T20:21:14.362Z,9.17
2018-06-03T20:23:43.925Z,9.47
2018-06-03T20:26:12.427Z,8.23
2018-06-03T20:28:41.031Z,11.20
2018-06-03T20:31:09.606Z,9.80
2018-06-03T20:33:38.195Z,10.50
2018-06-03T20:36:06.941Z,10.50
2018-06-03T20:38:35.451Z,11.53
2018-06-03T20:41:04.034Z,15.80
2018-06-03T20:43:32.615Z,9.90
2018-06-03T20:46:01.171Z,8.10
2018-06-03T20:48:30.729Z,7.80
2018-06-03T20:50:59.931Z,5.97
2018-06-03T20:53:28.963Z,7.33
2018-06-03T20:55:58.734Z,12.33
2018-06-03T20:58:27.280Z,7.10
2018-06-03T21:00:55.453Z,11.90
2018-06-03T21:03:23.643Z,7.10
2018-06-03T21:05:52.180Z,6.47
2018-06-03T21:08:20.727Z,9.03
2018-06-03T21:10:49.279Z,7.47
2018-06-03T21:13:17.843Z,9.67
2018-06-03T21:15:46.481Z,6.10
2018-06-03T21:18:16.023Z,9.63
2018-06-03T21:20:44.595Z,8.50
2018-06-03T21:23:13.125Z,8.23
2018-06-03T21:25:41.694Z,8.07
2018-06-03T21:28:10.223Z,9.10
2018-06-03T21:30:38.833Z,11.50
2018-06-03T21:33:08.989Z,5.83
2018-06-03T21:35:37.743Z,5.77
2018-06-03T21:38:07.150Z,9.43
2018-06-03T21:40:36.837Z,9.63
2018-06-03T21:43:07.575Z,6.73
2018-06-03T21:45:37.319Z,7.33
2018-06-03T21:48:07.576Z,10.90
2018-06-03T21:50:37.197Z,6.47
2018-06-03T21:53:06.893Z,6.63
2018-06-03T21:55:36.524Z,6.83
2018-06-03T21:58:04.747Z,7.07
2018-06-03T22:00:33.517Z,6.27
2018-06-03T22:03:02.907Z,9.07
2018-06-03T22:05:31.611Z,8.33
2018-06-03T22:08:00.269Z,6.70
2018-06-03T22:10:29.002Z,6.83
2018-06-03T22:12:57.599Z,9.77
2018-06-03T22:15:27.187Z,6.67
2018-06-03T22:17:55.747Z,7.33
2018-06-03T22:20:24.297Z,7.37
2018-06-03T22:22:52.814Z,6.93
2018-06-03T22:25:21.362Z,8.10
2018-06-03T22:27:49.983Z,6.83
2018-06-03T22:30:18.535Z,9.13
2018-06-03T22:32:47.239Z,6.40
2018-06-03T22:35:15.776Z,7.13
2018-06-03T22:37:44.320Z,8.50
2018-06-03T22:40:12.836Z,6.90
2018-06-03T22:42:45.192Z,8.60
2018-06-03T22:45:13.822Z,7.40
2018-06-03T22:47:42.354Z,9.10
2018-06-03T22:50:11.054Z,9.83
2018-06-03T22:52:39.580Z,7.70
2018-06-03T22:55:08.132Z,10.87
2018-06-03T22:57:48.532Z,7.80
2018-06-03T23:00:27.143Z,9.67
2018-06-03T23:03:00.985Z,11.03
2018-06-03T23:05:29.534Z,11.80
2018-06-03T23:07:58.136Z,10.70
2018-06-03T23:10:26.723Z,9.93
2018-06-03T23:12:55.275Z,11.30
2018-06-03T23:15:24.172Z,12.33
2018-06-03T23:17:52.855Z,10.20
2018-06-03T23:20:21.484Z,16.37
2018-06-03T23:22:50.034Z,12.50
2018-06-03T23:25:18.626Z,10.03
2018-06-03T23:27:47.196Z,11.40
2018-06-03T23:30:15.712Z,11.57
2018-06-03T23:32:44.387Z,10.43
2018-06-03T23:35:12.929Z,13.80
2018-06-03T23:37:41.462Z,12.83
2018-06-03T23:40:10.028Z,11.73
2018-06-03T23:42:39.567Z,14.50
2018-06-03T23:45:08.151Z,12.43
2018-06-03T23:47:36.339Z,12.10
2018-06-03T23:50:05.019Z,13.17
2018-06-03T23:52:33.580Z,16.57
2018-06-03T23:55:02.095Z,15.83
2018-06-03T23:57:30.654Z,13.40
2018-06-03T23:59:59.192Z,13.97
